sensor_id;sensor_type;location;lat;lon;timestamp;pressure;altitude;pressure_sealevel;temperature;humidity
37202;BME280;37799;52.390;6.136;2023-04-21T00:01:12;101574.88;;;8.39;100.00
37202;BME280;37799;52.390;6.136;2023-04-21T00:03:38;101575.75;;;8.38;100.00
37202;BME280;37799;52.390;6.136;2023-04-21T00:06:06;101565.44;;;8.40;100.00
37202;BME280;37799;52.390;6.136;2023-04-21T00:08:31;101560.25;;;8.43;100.00
37202;BME280;37799;52.390;6.136;2023-04-21T00:10:57;101551.63;;;8.45;100.00
37202;BME280;37799;52.390;6.136;2023-04-21T00:13:22;101543.88;;;8.45;100.00
37202;BME280;37799;52.390;6.136;2023-04-21T00:15:48;101535.28;;;8.43;100.00
37202;BME280;37799;52.390;6.136;2023-04-21T00:18:14;101536.16;;;8.41;100.00
37202;BME280;37799;52.390;6.136;2023-04-21T00:20:39;101535.28;;;8.48;100.00
37202;BME280;37799;52.390;6.136;2023-04-21T00:23:04;101534.44;;;8.43;100.00
37202;BME280;37799;52.390;6.136;2023-04-21T00:25:30;101525.72;;;8.59;100.00
37202;BME280;37799;52.390;6.136;2023-04-21T00:27:55;101519.78;;;8.49;100.00
37202;BME280;37799;52.390;6.136;2023-04-21T00:30:20;101513.75;;;8.49;100.00
37202;BME280;37799;52.390;6.136;2023-04-21T00:32:46;101502.59;;;8.47;100.00
37202;BME280;37799;52.390;6.136;2023-04-21T00:35:11;101498.28;;;8.47;100.00
37202;BME280;37799;52.390;6.136;2023-04-21T00:37:36;101497.34;;;8.57;100.00
37202;BME280;37799;52.390;6.136;2023-04-21T00:40:02;101494.78;;;8.53;100.00
37202;BME280;37799;52.390;6.136;2023-04-21T00:42:28;101486.94;;;8.68;100.00
37202;BME280;37799;52.390;6.136;2023-04-21T00:44:54;101496.38;;;8.74;100.00
37202;BME280;37799;52.390;6.136;2023-04-21T00:47:19;101487.81;;;8.67;100.00
37202;BME280;37799;52.390;6.136;2023-04-21T00:49:45;101483.47;;;8.74;100.00
37202;BME280;37799;52.390;6.136;2023-04-21T00:52:12;101485.13;;;8.79;100.00
37202;BME280;37799;52.390;6.136;2023-04-21T00:54:38;101480.72;;;8.92;100.00
37202;BME280;37799;52.390;6.136;2023-04-21T00:57:04;101480.69;;;8.94;100.00
37202;BME280;37799;52.390;6.136;2023-04-21T00:59:32;101477.19;;;8.98;100.00
37202;BME280;37799;52.390;6.136;2023-04-21T01:01:57;101478.94;;;8.96;100.00
37202;BME280;37799;52.390;6.136;2023-04-21T01:04:22;101477.19;;;8.98;100.00
37202;BME280;37799;52.390;6.136;2023-04-21T01:06:48;101472.88;;;9.01;100.00
37202;BME280;37799;52.390;6.136;2023-04-21T01:09:13;101473.63;;;9.11;100.00
37202;BME280;37799;52.390;6.136;2023-04-21T01:11:39;101484.81;;;9.16;100.00
37202;BME280;37799;52.390;6.136;2023-04-21T01:14:05;101482.28;;;9.07;100.00
37202;BME280;37799;52.390;6.136;2023-04-21T01:16:30;101483.22;;;9.01;100.00
37202;BME280;37799;52.390;6.136;2023-04-21T01:19:00;101488.28;;;9.12;100.00
37202;BME280;37799;52.390;6.136;2023-04-21T01:21:26;101487.34;;;9.19;100.00
37202;BME280;37799;52.390;6.136;2023-04-21T01:23:53;101486.56;;;9.14;100.00
37202;BME280;37799;52.390;6.136;2023-04-21T01:26:19;101491.78;;;9.06;100.00
37202;BME280;37799;52.390;6.136;2023-04-21T01:28:46;101487.50;;;9.04;100.00
37202;BME280;37799;52.390;6.136;2023-04-21T01:31:16;101491.72;;;9.12;100.00
37202;BME280;37799;52.390;6.136;2023-04-21T01:33:43;101489.94;;;9.18;100.00
37202;BME280;37799;52.390;6.136;2023-04-21T01:36:08;101494.19;;;9.23;100.00
37202;BME280;37799;52.390;6.136;2023-04-21T01:38:37;101486.41;;;9.28;100.00
37202;BME280;37799;52.390;6.136;2023-04-21T01:41:03;101497.56;;;9.31;100.00
37202;BME280;37799;52.390;6.136;2023-04-21T01:43:28;101496.00;;;9.15;100.00
37202;BME280;37799;52.390;6.136;2023-04-21T01:45:53;101489.91;;;9.21;100.00
37202;BME280;37799;52.390;6.136;2023-04-21T01:48:18;101490.78;;;9.21;100.00
37202;BME280;37799;52.390;6.136;2023-04-21T01:50:44;101490.84;;;9.15;100.00
37202;BME280;37799;52.390;6.136;2023-04-21T01:53:09;101483.09;;;9.13;100.00
37202;BME280;37799;52.390;6.136;2023-04-21T01:55:35;101489.03;;;9.22;100.00
37202;BME280;37799;52.390;6.136;2023-04-21T01:58:00;101482.03;;;9.34;100.00
37202;BME280;37799;52.390;6.136;2023-04-21T02:00:25;101487.19;;;9.34;100.00
37202;BME280;37799;52.390;6.136;2023-04-21T02:02:51;101484.72;;;9.22;100.00
37202;BME280;37799;52.390;6.136;2023-04-21T02:05:17;101485.56;;;9.26;100.00
37202;BME280;37799;52.390;6.136;2023-04-21T02:07:42;101488.97;;;9.29;100.00
37202;BME280;37799;52.390;6.136;2023-04-21T02:10:08;101483.88;;;9.20;100.00
37202;BME280;37799;52.390;6.136;2023-04-21T02:12:34;101482.13;;;9.24;100.00
37202;BME280;37799;52.390;6.136;2023-04-21T02:14:59;101482.97;;;9.24;100.00
37202;BME280;37799;52.390;6.136;2023-04-21T02:17:24;101486.44;;;9.25;100.00
37202;BME280;37799;52.390;6.136;2023-04-21T02:19:50;101484.69;;;9.28;100.00
37202;BME280;37799;52.390;6.136;2023-04-21T02:22:15;101475.94;;;9.37;100.00
37202;BME280;37799;52.390;6.136;2023-04-21T02:24:40;101471.63;;;9.37;100.00
37202;BME280;37799;52.390;6.136;2023-04-21T02:27:06;101472.59;;;9.30;100.00
37202;BME280;37799;52.390;6.136;2023-04-21T02:29:31;101477.78;;;9.29;100.00
37202;BME280;37799;52.390;6.136;2023-04-21T02:31:56;101478.56;;;9.34;100.00
37202;BME280;37799;52.390;6.136;2023-04-21T02:34:22;101461.44;;;9.27;100.00
37202;BME280;37799;52.390;6.136;2023-04-21T02:36:47;101473.50;;;9.26;100.00
37202;BME280;37799;52.390;6.136;2023-04-21T02:39:12;101470.81;;;9.34;100.00
37202;BME280;37799;52.390;6.136;2023-04-21T02:41:38;101476.13;;;9.20;100.00
37202;BME280;37799;52.390;6.136;2023-04-21T02:44:03;101475.06;;;9.42;100.00
37202;BME280;37799;52.390;6.136;2023-04-21T02:46:29;101468.22;;;9.35;100.00
37202;BME280;37799;52.390;6.136;2023-04-21T02:48:55;101471.69;;;9.34;100.00
37202;BME280;37799;52.390;6.136;2023-04-21T02:51:20;101479.50;;;9.28;100.00
37202;BME280;37799;52.390;6.136;2023-04-21T02:53:45;101475.97;;;9.35;100.00
37202;BME280;37799;52.390;6.136;2023-04-21T02:56:10;101468.19;;;9.37;100.00
37202;BME280;37799;52.390;6.136;2023-04-21T02:58:36;101482.13;;;9.25;100.00
37202;BME280;37799;52.390;6.136;2023-04-21T03:01:02;101475.25;;;9.21;100.00
37202;BME280;37799;52.390;6.136;2023-04-21T03:03:29;101490.63;;;9.38;100.00
37202;BME280;37799;52.390;6.136;2023-04-21T03:05:58;101480.22;;;9.42;100.00
37202;BME280;37799;52.390;6.136;2023-04-21T03:08:24;101492.34;;;9.36;100.00
37202;BME280;37799;52.390;6.136;2023-04-21T03:10:49;101494.19;;;9.26;100.00
37202;BME280;37799;52.390;6.136;2023-04-21T03:13:15;101480.38;;;9.27;100.00
37202;BME280;37799;52.390;6.136;2023-04-21T03:15:40;101488.13;;;9.29;100.00
37202;BME280;37799;52.390;6.136;2023-04-21T03:18:06;101487.19;;;9.34;100.00
37202;BME280;37799;52.390;6.136;2023-04-21T03:20:31;101497.53;;;9.34;100.00
37202;BME280;37799;52.390;6.136;2023-04-21T03:22:56;101493.19;;;9.36;100.00
37202;BME280;37799;52.390;6.136;2023-04-21T03:25:22;101497.53;;;9.34;100.00
37202;BME280;37799;52.390;6.136;2023-04-21T03:27:49;101500.94;;;9.39;100.00
37202;BME280;37799;52.390;6.136;2023-04-21T03:30:14;101497.47;;;9.40;100.00
37202;BME280;37799;52.390;6.136;2023-04-21T03:32:39;101493.09;;;9.47;100.00
37202;BME280;37799;52.390;6.136;2023-04-21T03:35:05;101497.50;;;9.37;100.00
37202;BME280;37799;52.390;6.136;2023-04-21T03:37:30;101493.97;;;9.44;100.00
37202;BME280;37799;52.390;6.136;2023-04-21T03:39:55;101496.63;;;9.37;100.00
37202;BME280;37799;52.390;6.136;2023-04-21T03:42:21;101497.53;;;9.34;100.00
37202;BME280;37799;52.390;6.136;2023-04-21T03:44:46;101493.00;;;9.55;100.00
37202;BME280;37799;52.390;6.136;2023-04-21T03:47:11;101493.94;;;9.51;100.00
37202;BME280;37799;52.390;6.136;2023-04-21T03:49:37;101496.50;;;9.49;100.00
37202;BME280;37799;52.390;6.136;2023-04-21T03:52:02;101495.59;;;9.55;100.00
37202;BME280;37799;52.390;6.136;2023-04-21T03:54:27;101490.53;;;9.45;100.00
37202;BME280;37799;52.390;6.136;2023-04-21T03:56:53;101488.75;;;9.52;100.00
37202;BME280;37799;52.390;6.136;2023-04-21T03:59:19;101482.75;;;9.45;100.00
37202;BME280;37799;52.390;6.136;2023-04-21T04:01:44;101494.91;;;9.39;100.00
37202;BME280;37799;52.390;6.136;2023-04-21T04:04:09;101493.22;;;9.33;100.00
37202;BME280;37799;52.390;6.136;2023-04-21T04:06:35;101483.84;;;9.26;100.00
37202;BME280;37799;52.390;6.136;2023-04-21T04:09:01;101479.56;;;9.25;100.00
37202;BME280;37799;52.390;6.136;2023-04-21T04:11:31;101481.28;;;9.25;100.00
37202;BME280;37799;52.390;6.136;2023-04-21T04:13:57;101471.78;;;9.25;100.00
37202;BME280;37799;52.390;6.136;2023-04-21T04:16:22;101469.16;;;9.30;100.00
37202;BME280;37799;52.390;6.136;2023-04-21T04:18:51;101468.34;;;9.25;100.00
37202;BME280;37799;52.390;6.136;2023-04-21T04:21:16;101466.59;;;9.28;100.00
37202;BME280;37799;52.390;6.136;2023-04-21T04:23:41;101473.50;;;9.26;100.00
37202;BME280;37799;52.390;6.136;2023-04-21T04:26:08;101463.94;;;9.33;100.00
37202;BME280;37799;52.390;6.136;2023-04-21T04:28:33;101455.16;;;9.51;100.00
37202;BME280;37799;52.390;6.136;2023-04-21T04:30:59;101457.88;;;9.38;100.00
37202;BME280;37799;52.390;6.136;2023-04-21T04:33:25;101463.03;;;9.37;100.00
37202;BME280;37799;52.390;6.136;2023-04-21T04:35:50;101475.13;;;9.38;100.00
37202;BME280;37799;52.390;6.136;2023-04-21T04:38:16;101475.97;;;9.38;100.00
37202;BME280;37799;52.390;6.136;2023-04-21T04:40:42;101475.03;;;9.44;100.00
37202;BME280;37799;52.390;6.136;2023-04-21T04:43:07;101475.94;;;9.41;100.00
37202;BME280;37799;52.390;6.136;2023-04-21T04:45:35;101488.84;;;9.41;100.00
37202;BME280;37799;52.390;6.136;2023-04-21T04:48:01;101484.56;;;9.40;100.00
37202;BME280;37799;52.390;6.136;2023-04-21T04:50:27;101487.19;;;9.34;100.00
37202;BME280;37799;52.390;6.136;2023-04-21T04:52:52;101487.16;;;9.37;100.00
37202;BME280;37799;52.390;6.136;2023-04-21T04:55:17;101474.97;;;9.52;100.00
37202;BME280;37799;52.390;6.136;2023-04-21T04:57:43;101487.88;;;9.53;100.00
37202;BME280;37799;52.390;6.136;2023-04-21T05:00:09;101483.72;;;9.37;100.00
37202;BME280;37799;52.390;6.136;2023-04-21T05:02:36;101478.47;;;9.44;100.00
37202;BME280;37799;52.390;6.136;2023-04-21T05:05:02;101488.03;;;9.36;100.00
37202;BME280;37799;52.390;6.136;2023-04-21T05:07:27;101483.59;;;9.51;100.00
37202;BME280;37799;52.390;6.136;2023-04-21T05:09:53;101496.59;;;9.41;100.00
37202;BME280;37799;52.390;6.136;2023-04-21T05:12:18;101484.56;;;9.39;100.00
37202;BME280;37799;52.390;6.136;2023-04-21T05:14:43;101486.16;;;9.52;100.00
37202;BME280;37799;52.390;6.136;2023-04-21T05:17:09;101497.50;;;9.37;100.00
37202;BME280;37799;52.390;6.136;2023-04-21T05:19:35;101500.94;;;9.39;100.00
37202;BME280;37799;52.390;6.136;2023-04-21T05:22:01;101485.34;;;9.45;100.00
37202;BME280;37799;52.390;6.136;2023-04-21T05:24:27;101487.06;;;9.46;100.00
37202;BME280;37799;52.390;6.136;2023-04-21T05:26:52;101492.28;;;9.43;100.00
37202;BME280;37799;52.390;6.136;2023-04-21T05:29:18;101467.06;;;9.62;100.00
37202;BME280;37799;52.390;6.136;2023-04-21T05:31:43;101473.19;;;9.54;100.00
37202;BME280;37799;52.390;6.136;2023-04-21T05:34:08;101477.44;;;9.59;100.00
37202;BME280;37799;52.390;6.136;2023-04-21T05:36:34;101492.91;;;9.62;100.00
37202;BME280;37799;52.390;6.136;2023-04-21T05:38:59;101495.66;;;9.47;100.00
37202;BME280;37799;52.390;6.136;2023-04-21T05:41:25;101495.59;;;9.55;100.00
37202;BME280;37799;52.390;6.136;2023-04-21T05:43:50;101488.72;;;9.54;100.00
37202;BME280;37799;52.390;6.136;2023-04-21T05:46:15;101502.44;;;9.59;100.00
37202;BME280;37799;52.390;6.136;2023-04-21T05:48:41;101498.91;;;9.66;100.00
37202;BME280;37799;52.390;6.136;2023-04-21T05:51:10;101502.22;;;9.75;100.00
37202;BME280;37799;52.390;6.136;2023-04-21T05:53:37;101504.81;;;9.79;100.00
37202;BME280;37799;52.390;6.136;2023-04-21T05:56:03;101509.03;;;9.84;100.00
37202;BME280;37799;52.390;6.136;2023-04-21T05:58:28;101515.88;;;9.90;100.00
37202;BME280;37799;52.390;6.136;2023-04-21T06:00:53;101513.19;;;9.97;100.00
37202;BME280;37799;52.390;6.136;2023-04-21T06:03:19;101519.28;;;9.93;100.00
37202;BME280;37799;52.390;6.136;2023-04-21T06:05:44;101514.13;;;9.92;100.00
37202;BME280;37799;52.390;6.136;2023-04-21T06:08:10;101510.00;;;9.75;100.00
37202;BME280;37799;52.390;6.136;2023-04-21T06:10:35;101511.66;;;9.83;100.00
37202;BME280;37799;52.390;6.136;2023-04-21T06:13:00;101504.69;;;9.86;100.00
37202;BME280;37799;52.390;6.136;2023-04-21T06:15:26;101498.59;;;9.93;100.00
37202;BME280;37799;52.390;6.136;2023-04-21T06:17:52;101503.81;;;9.87;100.00
37202;BME280;37799;52.390;6.136;2023-04-21T06:20:18;101490.78;;;9.96;100.00
37202;BME280;37799;52.390;6.136;2023-04-21T06:22:44;101498.59;;;9.93;100.00
37202;BME280;37799;52.390;6.136;2023-04-21T06:25:09;101493.38;;;9.96;100.00
37202;BME280;37799;52.390;6.136;2023-04-21T06:27:34;101490.72;;;10.01;100.00
37202;BME280;37799;52.390;6.136;2023-04-21T06:30:00;101486.44;;;9.98;100.00
37202;BME280;37799;52.390;6.136;2023-04-21T06:32:25;101481.03;;;10.17;100.00
37202;BME280;37799;52.390;6.136;2023-04-21T06:34:50;101476.88;;;10.05;100.00
37202;BME280;37799;52.390;6.136;2023-04-21T06:37:16;101483.72;;;10.08;100.00
37202;BME280;37799;52.390;6.136;2023-04-21T06:39:41;101481.16;;;10.06;100.00
37202;BME280;37799;52.390;6.136;2023-04-21T06:42:07;101476.81;;;10.08;100.00
37202;BME280;37799;52.390;6.136;2023-04-21T06:44:32;101472.56;;;10.02;100.00
37202;BME280;37799;52.390;6.136;2023-04-21T06:46:57;101469.09;;;10.07;100.00
37202;BME280;37799;52.390;6.136;2023-04-21T06:49:22;101469.03;;;10.10;100.00
37202;BME280;37799;52.390;6.136;2023-04-21T06:51:48;101462.06;;;10.15;100.00
37202;BME280;37799;52.390;6.136;2023-04-21T06:54:13;101471.81;;;9.96;100.00
37202;BME280;37799;52.390;6.136;2023-04-21T06:56:38;101481.13;;;10.09;100.00
37202;BME280;37799;52.390;6.136;2023-04-21T06:59:05;101492.34;;;10.08;100.00
37202;BME280;37799;52.390;6.136;2023-04-21T07:01:30;101488.06;;;10.05;100.00
37202;BME280;37799;52.390;6.136;2023-04-21T07:03:56;101489.66;;;10.16;100.00
37202;BME280;37799;52.390;6.136;2023-04-21T07:06:21;101486.41;;;10.00;100.00
37202;BME280;37799;52.390;6.136;2023-04-21T07:08:46;101490.78;;;9.96;100.00
37202;BME280;37799;52.390;6.136;2023-04-21T07:11:11;101491.53;;;10.04;100.00
37202;BME280;37799;52.390;6.136;2023-04-21T07:13:37;101484.66;;;10.03;100.00
37202;BME280;37799;52.390;6.136;2023-04-21T07:16:02;101488.91;;;10.08;100.00
37202;BME280;37799;52.390;6.136;2023-04-21T07:18:27;101484.59;;;10.08;100.00
37202;BME280;37799;52.390;6.136;2023-04-21T07:20:53;101493.06;;;10.19;100.00
37202;BME280;37799;52.390;6.136;2023-04-21T07:23:18;101486.09;;;10.26;100.00
37202;BME280;37799;52.390;6.136;2023-04-21T07:25:43;101481.69;;;10.32;100.00
37202;BME280;37799;52.390;6.136;2023-04-21T07:28:09;101480.88;;;10.29;100.00
37202;BME280;37799;52.390;6.136;2023-04-21T07:30:35;101487.75;;;10.28;100.00
37202;BME280;37799;52.390;6.136;2023-04-21T07:33:00;101484.16;;;10.40;100.00
37202;BME280;37799;52.390;6.136;2023-04-21T07:35:26;101489.38;;;10.37;100.00
37202;BME280;37799;52.390;6.136;2023-04-21T07:37:51;101479.97;;;10.31;100.00
37202;BME280;37799;52.390;6.136;2023-04-21T07:40:16;101477.38;;;10.33;100.00
37202;BME280;37799;52.390;6.136;2023-04-21T07:42:42;101483.28;;;10.40;100.00
37202;BME280;37799;52.390;6.136;2023-04-21T07:45:07;101481.56;;;10.42;100.00
37202;BME280;37799;52.390;6.136;2023-04-21T07:47:33;101478.84;;;10.49;100.00
37202;BME280;37799;52.390;6.136;2023-04-21T07:49:58;101475.44;;;10.47;100.00
37202;BME280;37799;52.390;6.136;2023-04-21T07:52:23;101477.06;;;10.51;100.00
37202;BME280;37799;52.390;6.136;2023-04-21T07:54:49;101475.25;;;10.59;100.00
37202;BME280;37799;52.390;6.136;2023-04-21T07:57:15;101482.84;;;10.70;100.00
37202;BME280;37799;52.390;6.136;2023-04-21T07:59:41;101484.53;;;10.73;100.00
37202;BME280;37799;52.390;6.136;2023-04-21T08:02:07;101472.19;;;10.87;100.00
37202;BME280;37799;52.390;6.136;2023-04-21T08:04:32;101478.13;;;10.92;100.00
37202;BME280;37799;52.390;6.136;2023-04-21T08:06:58;101487.72;;;10.88;100.00
37202;BME280;37799;52.390;6.136;2023-04-21T08:09:23;101489.22;;;11.02;100.00
37202;BME280;37799;52.390;6.136;2023-04-21T08:11:49;101486.66;;;11.00;100.00
37202;BME280;37799;52.390;6.136;2023-04-21T08:14:14;101490.19;;;10.96;100.00
37202;BME280;37799;52.390;6.136;2023-04-21T08:16:39;101483.97;;;11.05;100.00
37202;BME280;37799;52.390;6.136;2023-04-21T08:19:07;101484.59;;;11.17;100.00
37202;BME280;37799;52.390;6.136;2023-04-21T08:21:32;101483.91;;;11.54;100.00
37202;BME280;37799;52.390;6.136;2023-04-21T08:23:58;101488.31;;;11.50;100.00
37202;BME280;37799;52.390;6.136;2023-04-21T08:26:24;101480.50;;;11.52;100.00
37202;BME280;37799;52.390;6.136;2023-04-21T08:28:50;101474.91;;;11.73;100.00
37202;BME280;37799;52.390;6.136;2023-04-21T08:31:18;101487.66;;;11.86;100.00
37202;BME280;37799;52.390;6.136;2023-04-21T08:33:43;101485.44;;;12.07;100.00
37202;BME280;37799;52.390;6.136;2023-04-21T08:36:08;101480.16;;;12.12;100.00
37202;BME280;37799;52.390;6.136;2023-04-21T08:38:35;101478.28;;;12.19;100.00
37202;BME280;37799;52.390;6.136;2023-04-21T08:41:02;101465.78;;;12.34;100.00
37202;BME280;37799;52.390;6.136;2023-04-21T08:43:28;101471.50;;;12.49;100.00
37202;BME280;37799;52.390;6.136;2023-04-21T08:45:55;101485.94;;;12.60;100.00
37202;BME280;37799;52.390;6.136;2023-04-21T08:48:21;101486.38;;;12.79;100.00
37202;BME280;37799;52.390;6.136;2023-04-21T08:50:49;101484.91;;;13.02;100.00
37202;BME280;37799;52.390;6.136;2023-04-21T08:53:15;101485.38;;;13.19;100.00
37202;BME280;37799;52.390;6.136;2023-04-21T08:55:41;101493.09;;;13.22;100.00
37202;BME280;37799;52.390;6.136;2023-04-21T08:58:07;101493.06;;;13.23;100.00
37202;BME280;37799;52.390;6.136;2023-04-21T09:00:34;101489.75;;;13.18;100.00
37202;BME280;37799;52.390;6.136;2023-04-21T09:03:00;101488.16;;;13.11;100.00
37202;BME280;37799;52.390;6.136;2023-04-21T09:05:31;101486.31;;;13.15;100.00
37202;BME280;37799;52.390;6.136;2023-04-21T09:10:41;101488.22;;;13.08;100.00
37202;BME280;37799;52.390;6.136;2023-04-21T09:13:06;101488.91;;;13.15;100.00
37202;BME280;37799;52.390;6.136;2023-04-21T09:15:40;101490.06;;;13.05;100.00
37202;BME280;37799;52.390;6.136;2023-04-21T09:18:14;101483.72;;;13.15;100.00
37202;BME280;37799;52.390;6.136;2023-04-21T09:20:40;101483.19;;;13.02;100.00
37202;BME280;37799;52.390;6.136;2023-04-21T09:23:07;101482.41;;;12.98;100.00
37202;BME280;37799;52.390;6.136;2023-04-21T09:25:33;101488.50;;;12.97;100.00
37202;BME280;37799;52.390;6.136;2023-04-21T09:27:59;101486.53;;;13.07;100.00
37202;BME280;37799;52.390;6.136;2023-04-21T09:30:25;101480.78;;;12.94;100.00
37202;BME280;37799;52.390;6.136;2023-04-21T09:32:55;101478.22;;;12.93;100.00
37202;BME280;37799;52.390;6.136;2023-04-21T09:35:20;101489.25;;;13.03;100.00
37202;BME280;37799;52.390;6.136;2023-04-21T09:37:46;101477.59;;;13.19;100.00
37202;BME280;37799;52.390;6.136;2023-04-21T09:40:13;101483.41;;;13.28;100.00
37202;BME280;37799;52.390;6.136;2023-04-21T09:42:40;101481.44;;;13.37;100.00
37202;BME280;37799;52.390;6.136;2023-04-21T09:45:12;101475.94;;;13.47;100.00
37202;BME280;37799;52.390;6.136;2023-04-21T09:47:42;101469.94;;;13.75;100.00
37202;BME280;37799;52.390;6.136;2023-04-21T09:50:18;101469.28;;;13.68;100.00
37202;BME280;37799;52.390;6.136;2023-04-21T09:52:48;101473.66;;;13.66;100.00
37202;BME280;37799;52.390;6.136;2023-04-21T09:55:15;101466.69;;;13.67;100.00
37202;BME280;37799;52.390;6.136;2023-04-21T09:57:42;101463.03;;;13.74;100.00
37202;BME280;37799;52.390;6.136;2023-04-21T10:00:12;101460.34;;;14.06;100.00
37202;BME280;37799;52.390;6.136;2023-04-21T10:02:48;101456.53;;;14.16;100.00
37202;BME280;37799;52.390;6.136;2023-04-21T10:05:14;101462.69;;;14.42;100.00
37202;BME280;37799;52.390;6.136;2023-04-21T10:07:40;101464.03;;;14.27;100.00
37202;BME280;37799;52.390;6.136;2023-04-21T10:10:24;101466.09;;;14.45;100.00
37202;BME280;37799;52.390;6.136;2023-04-21T10:12:51;101455.06;;;14.64;100.00
37202;BME280;37799;52.390;6.136;2023-04-21T10:15:39;101459.13;;;14.72;100.00
37202;BME280;37799;52.390;6.136;2023-04-21T10:20:56;101457.59;;;14.92;100.00
37202;BME280;37799;52.390;6.136;2023-04-21T10:23:43;101456.88;;;14.88;100.00
37202;BME280;37799;52.390;6.136;2023-04-21T10:26:22;101463.09;;;15.09;100.00
37202;BME280;37799;52.390;6.136;2023-04-21T10:31:33;101456.94;;;15.12;100.00
37202;BME280;37799;52.390;6.136;2023-04-21T10:36:31;101453.06;;;14.97;100.00
37202;BME280;37799;52.390;6.136;2023-04-21T10:39:03;101453.03;;;14.73;100.00
37202;BME280;37799;52.390;6.136;2023-04-21T10:41:32;101447.50;;;14.56;100.00
37202;BME280;37799;52.390;6.136;2023-04-21T10:44:12;101448.22;;;14.61;100.00
37202;BME280;37799;52.390;6.136;2023-04-21T10:46:39;101441.16;;;14.90;100.00
37202;BME280;37799;52.390;6.136;2023-04-21T10:49:11;101438.84;;;14.81;100.00
37202;BME280;37799;52.390;6.136;2023-04-21T10:57:18;101423.50;;;14.98;100.00
37202;BME280;37799;52.390;6.136;2023-04-21T10:59:45;101425.34;;;15.19;100.00
37202;BME280;37799;52.390;6.136;2023-04-21T11:02:13;101420.00;;;15.22;100.00
37202;BME280;37799;52.390;6.136;2023-04-21T11:04:39;101420.56;;;15.07;100.00
37202;BME280;37799;52.390;6.136;2023-04-21T11:07:15;101424.63;;;15.39;100.00
37202;BME280;37799;52.390;6.136;2023-04-21T11:09:42;101421.19;;;15.39;100.00
37202;BME280;37799;52.390;6.136;2023-04-21T11:12:10;101415.84;;;15.42;100.00
37202;BME280;37799;52.390;6.136;2023-04-21T11:14:40;101405.78;;;15.54;100.00
37202;BME280;37799;52.390;6.136;2023-04-21T11:17:16;101398.81;;;15.55;100.00
37202;BME280;37799;52.390;6.136;2023-04-21T11:19:53;101402.88;;;15.63;100.00
37202;BME280;37799;52.390;6.136;2023-04-21T11:22:20;101396.75;;;15.65;100.00
37202;BME280;37799;52.390;6.136;2023-04-21T11:24:46;101392.56;;;15.59;100.00
37202;BME280;37799;52.390;6.136;2023-04-21T11:27:12;101399.44;;;15.61;100.00
37202;BME280;37799;52.390;6.136;2023-04-21T11:29:39;101391.16;;;15.74;100.00
37202;BME280;37799;52.390;6.136;2023-04-21T11:32:06;101394.56;;;15.98;100.00
37202;BME280;37799;52.390;6.136;2023-04-21T11:34:32;101387.41;;;16.03;100.00
37202;BME280;37799;52.390;6.136;2023-04-21T11:36:57;101395.34;;;16.00;100.00
37202;BME280;37799;52.390;6.136;2023-04-21T11:39:23;101393.69;;;15.75;100.00
37202;BME280;37799;52.390;6.136;2023-04-21T11:41:50;101390.13;;;15.54;100.00
37202;BME280;37799;52.390;6.136;2023-04-21T11:44:41;101384.34;;;15.46;100.00
37202;BME280;37799;52.390;6.136;2023-04-21T11:47:15;101392.00;;;15.27;100.00
37202;BME280;37799;52.390;6.136;2023-04-21T11:52:11;101394.03;;;15.19;100.00
37202;BME280;37799;52.390;6.136;2023-04-21T11:54:37;101388.00;;;14.94;100.00
37202;BME280;37799;52.390;6.136;2023-04-21T11:57:04;101387.06;;;14.71;100.00
37202;BME280;37799;52.390;6.136;2023-04-21T11:59:30;101387.25;;;14.65;100.00
37202;BME280;37799;52.390;6.136;2023-04-21T12:01:56;101370.44;;;14.49;100.00
37202;BME280;37799;52.390;6.136;2023-04-21T12:04:23;101379.22;;;14.45;100.00
37202;BME280;37799;52.390;6.136;2023-04-21T12:06:57;101368.88;;;14.42;100.00
37202;BME280;37799;52.390;6.136;2023-04-21T12:09:23;101360.34;;;14.38;100.00
37202;BME280;37799;52.390;6.136;2023-04-21T12:11:51;101360.50;;;14.34;100.00
37202;BME280;37799;52.390;6.136;2023-04-21T12:14:18;101347.97;;;14.45;100.00
37202;BME280;37799;52.390;6.136;2023-04-21T12:16:43;101343.63;;;14.70;100.00
37202;BME280;37799;52.390;6.136;2023-04-21T12:19:08;101336.69;;;14.94;100.00
37202;BME280;37799;52.390;6.136;2023-04-21T12:21:36;101331.59;;;15.38;100.00
37202;BME280;37799;52.390;6.136;2023-04-21T12:24:05;101331.03;;;15.75;100.00
37202;BME280;37799;52.390;6.136;2023-04-21T12:26:30;101337.44;;;16.32;100.00
37202;BME280;37799;52.390;6.136;2023-04-21T12:28:55;101324.63;;;16.67;100.00
37202;BME280;37799;52.390;6.136;2023-04-21T12:31:21;101328.38;;;16.82;100.00
37202;BME280;37799;52.390;6.136;2023-04-21T12:33:46;101335.00;;;16.70;100.00
37202;BME280;37799;52.390;6.136;2023-04-21T12:36:11;101329.41;;;16.77;100.00
37202;BME280;37799;52.390;6.136;2023-04-21T12:38:37;101325.53;;;17.25;100.00
37202;BME280;37799;52.390;6.136;2023-04-21T12:41:03;101322.97;;;17.61;100.00
37202;BME280;37799;52.390;6.136;2023-04-21T12:43:28;101328.44;;;17.93;100.00
37202;BME280;37799;52.390;6.136;2023-04-21T12:45:54;101324.91;;;17.94;100.00
37202;BME280;37799;52.390;6.136;2023-04-21T12:48:20;101318.78;;;18.12;100.00
37202;BME280;37799;52.390;6.136;2023-04-21T12:50:45;101317.66;;;18.34;100.00
37202;BME280;37799;52.390;6.136;2023-04-21T12:53:11;101319.47;;;18.50;100.00
37202;BME280;37799;52.390;6.136;2023-04-21T12:55:36;101314.13;;;18.35;100.00
37202;BME280;37799;52.390;6.136;2023-04-21T12:58:02;101303.31;;;18.58;100.00
37202;BME280;37799;52.390;6.136;2023-04-21T13:00:27;101300.72;;;18.75;100.00